Airfield :
LOGIN :

Register | Disclaimer

   EN    FR    IT 

 










Legend :    VFR   Marginal VFR   IFR   Intensive IFR   Very Intensive IFR
Visi :
Ceiling :
>= 8 km
>= 3000ft
5 to 8 km
1000 to 3000 ft
1500m to 5 km
500 to 1000 ft
800 to 1500m
200 to 500 ft
< 800m
< 200 ft
Symbols :   Thunderstorms  Fog  Heavy snow  Heavy precipitations  Wind > 20 kt
SIGMETs :     Misc.  Thunderstorms  Icing  Turbulence  Mountain Waves  Volcanic Ashes






- Airport Elevation : 885 ft
- IATA code : BAS


LFSB - Bale-Mulhouse

CURRENT METAR :
  • 181930Z AUTO 19003KT 160V240 9999 SCT042 BKN200 OVC240 M00/M02 Q1027 TEMPO 4000 BR

EXPIRED METARs :
  • 181900Z AUTO 16004KT 120V200 9999 FEW042 BKN210 OVC230 00/M01 Q1027 NOSIG
  • 181830Z AUTO 25003KT 230V300 9999 FEW041 OVC230 M01/M02 Q1027 NOSIG
  • 181800Z VRB02KT 9999 FEW020 BKN043 BKN240 00/M01 Q1027 R15/0100// NOSIG
  • 181730Z VRB01KT 9999 FEW020 BKN043 BKN240 00/M00 Q1027 R15/0100// NOSIG
  • 181700Z 19003KT 9999 FEW020 BKN043 BKN260 01/M01 Q1027 R15/0100 NOSIG

TAF TAF LFSB
Valid from the 18 at 18:00 until the 19 at 18:00 UTC


181700Z 1818/1918 19004KT 9999 SCT045 BKN230
PROB40
TEMPO 1821/1907 4000 BR NSC
Met : +33 3 89 90 31 11



MET'MAP, your aeronautical weather chart ! - Copyright ORBIFLY December 2007 - Disclaimer

ORBIFLY MET'MAP TEAM :

Programming & Development : Alexandra Zaïnal
Concept & original design : Baudouin d'Aumeries
Assistance for programming : Marc-Olivier Méhu
Technical & hardware support : Manuel Goepfert

Contact : metmap@orbifly.com




SOURCES & CREDITS :

   NOAA